sensor_id;sensor_type;location;lat;lon;timestamp;pressure;altitude;pressure_sealevel;temperature;humidity
21129;BME280;10722;51.910;8.352;2023-02-13T00:00:54;103051.22;;;7.26;100.00
21129;BME280;10722;51.910;8.352;2023-02-13T00:03:41;103053.13;;;7.28;100.00
21129;BME280;10722;51.910;8.352;2023-02-13T00:06:26;103051.63;;;7.32;100.00
21129;BME280;10722;51.910;8.352;2023-02-13T00:09:11;103055.22;;;7.34;100.00
21129;BME280;10722;51.910;8.352;2023-02-13T00:11:57;103046.28;;;7.29;100.00
21129;BME280;10722;51.910;8.352;2023-02-13T00:14:42;103049.25;;;7.22;100.00
21129;BME280;10722;51.910;8.352;2023-02-13T00:17:27;103055.06;;;7.19;100.00
21129;BME280;10722;51.910;8.352;2023-02-13T00:20:12;103040.66;;;7.09;100.00
21129;BME280;10722;51.910;8.352;2023-02-13T00:23:00;103046.28;;;7.04;100.00
21129;BME280;10722;51.910;8.352;2023-02-13T00:25:46;103038.13;;;6.97;100.00
21129;BME280;10722;51.910;8.352;2023-02-13T00:28:31;103045.97;;;6.99;100.00
21129;BME280;10722;51.910;8.352;2023-02-13T00:31:18;103036.69;;;7.01;100.00
21129;BME280;10722;51.910;8.352;2023-02-13T00:34:04;103040.72;;;6.97;100.00
21129;BME280;10722;51.910;8.352;2023-02-13T00:36:49;103044.41;;;7.01;100.00
21129;BME280;10722;51.910;8.352;2023-02-13T00:39:34;103040.25;;;7.03;100.00
21129;BME280;10722;51.910;8.352;2023-02-13T00:42:19;103037.38;;;6.99;100.00
21129;BME280;10722;51.910;8.352;2023-02-13T00:45:04;103045.50;;;7.05;100.00
21129;BME280;10722;51.910;8.352;2023-02-13T00:47:50;103036.78;;;7.03;100.00
21129;BME280;10722;51.910;8.352;2023-02-13T00:50:35;103035.69;;;6.99;100.00
21129;BME280;10722;51.910;8.352;2023-02-13T00:53:24;103037.25;;;6.97;100.00
21129;BME280;10722;51.910;8.352;2023-02-13T00:56:18;103035.34;;;6.94;100.00
21129;BME280;10722;51.910;8.352;2023-02-13T00:59:03;103035.47;;;6.96;100.00
21129;BME280;10722;51.910;8.352;2023-02-13T01:01:48;103033.59;;;6.93;100.00
21129;BME280;10722;51.910;8.352;2023-02-13T01:04:33;103032.69;;;6.93;100.00
21129;BME280;10722;51.910;8.352;2023-02-13T01:07:19;103030.88;;;6.92;100.00
21129;BME280;10722;51.910;8.352;2023-02-13T01:10:05;103038.72;;;6.93;100.00
21129;BME280;10722;51.910;8.352;2023-02-13T01:12:50;103028.22;;;6.90;100.00
21129;BME280;10722;51.910;8.352;2023-02-13T01:15:36;103041.19;;;6.92;100.00
21129;BME280;10722;51.910;8.352;2023-02-13T01:18:22;103026.63;;;6.92;100.00
21129;BME280;10722;51.910;8.352;2023-02-13T01:21:11;103028.31;;;6.92;100.00
21129;BME280;10722;51.910;8.352;2023-02-13T01:24:02;103035.16;;;6.91;100.00
21129;BME280;10722;51.910;8.352;2023-02-13T01:26:47;103030.13;;;6.93;100.00
21129;BME280;10722;51.910;8.352;2023-02-13T01:29:33;103031.44;;;7.00;100.00
21129;BME280;10722;51.910;8.352;2023-02-13T01:32:18;103036.56;;;7.00;100.00
21129;BME280;10722;51.910;8.352;2023-02-13T01:35:05;103032.44;;;7.02;100.00
21129;BME280;10722;51.910;8.352;2023-02-13T01:37:50;103034.13;;;7.01;100.00
21129;BME280;10722;51.910;8.352;2023-02-13T01:40:35;103029.94;;;7.03;100.00
21129;BME280;10722;51.910;8.352;2023-02-13T01:43:21;103028.25;;;7.04;100.00
21129;BME280;10722;51.910;8.352;2023-02-13T01:46:06;103029.53;;;6.97;100.00
21129;BME280;10722;51.910;8.352;2023-02-13T01:48:54;103028.53;;;6.95;100.00
21129;BME280;10722;51.910;8.352;2023-02-13T01:51:40;103018.56;;;7.00;100.00
21129;BME280;10722;51.910;8.352;2023-02-13T01:54:29;103021.53;;;7.06;100.00
21129;BME280;10722;51.910;8.352;2023-02-13T01:57:20;103017.47;;;6.96;100.00
21129;BME280;10722;51.910;8.352;2023-02-13T02:00:12;103014.69;;;6.93;100.00
21129;BME280;10722;51.910;8.352;2023-02-13T02:03:03;103017.72;;;6.87;100.00
21129;BME280;10722;51.910;8.352;2023-02-13T02:05:50;103012.25;;;6.83;100.00
21129;BME280;10722;51.910;8.352;2023-02-13T02:08:35;103016.81;;;6.87;100.00
21129;BME280;10722;51.910;8.352;2023-02-13T02:14:31;103016.03;;;6.88;100.00
21129;BME280;10722;51.910;8.352;2023-02-13T02:17:17;103010.31;;;6.92;100.00
21129;BME280;10722;51.910;8.352;2023-02-13T02:20:34;103009.22;;;6.88;100.00
21129;BME280;10722;51.910;8.352;2023-02-13T02:32:55;102998.72;;;6.85;100.00
21129;BME280;10722;51.910;8.352;2023-02-13T02:42:05;102994.84;;;6.79;100.00
21129;BME280;10722;51.910;8.352;2023-02-13T02:45:10;102997.28;;;6.77;100.00
21129;BME280;10722;51.910;8.352;2023-02-13T02:54:30;102987.00;;;6.77;100.00
21129;BME280;10722;51.910;8.352;2023-02-13T02:57:28;102983.41;;;6.75;100.00
21129;BME280;10722;51.910;8.352;2023-02-13T03:00:19;102987.41;;;6.83;100.00
21129;BME280;10722;51.910;8.352;2023-02-13T03:03:32;102983.94;;;6.83;100.00
21129;BME280;10722;51.910;8.352;2023-02-13T03:09:22;102978.25;;;6.75;100.00
21129;BME280;10722;51.910;8.352;2023-02-13T03:12:11;102970.25;;;6.70;100.00
21129;BME280;10722;51.910;8.352;2023-02-13T03:14:58;102975.69;;;6.75;100.00
21129;BME280;10722;51.910;8.352;2023-02-13T03:17:44;102972.75;;;6.82;100.00
21129;BME280;10722;51.910;8.352;2023-02-13T03:20:54;102973.78;;;6.84;100.00
21129;BME280;10722;51.910;8.352;2023-02-13T03:24:16;102963.56;;;6.86;100.00
21129;BME280;10722;51.910;8.352;2023-02-13T03:27:22;102961.31;;;6.65;100.00
21129;BME280;10722;51.910;8.352;2023-02-13T03:36:54;102971.28;;;6.61;100.00
21129;BME280;10722;51.910;8.352;2023-02-13T03:39:59;102963.34;;;6.58;100.00
21129;BME280;10722;51.910;8.352;2023-02-13T03:42:54;102973.09;;;6.50;100.00
21129;BME280;10722;51.910;8.352;2023-02-13T03:45:44;102971.41;;;6.62;100.00
21129;BME280;10722;51.910;8.352;2023-02-13T03:48:34;102966.81;;;6.58;100.00
21129;BME280;10722;51.910;8.352;2023-02-13T03:51:25;102978.44;;;6.65;100.00
21129;BME280;10722;51.910;8.352;2023-02-13T03:57:24;102969.91;;;6.66;100.00
21129;BME280;10722;51.910;8.352;2023-02-13T04:00:13;102968.63;;;6.59;100.00
21129;BME280;10722;51.910;8.352;2023-02-13T04:06:07;102972.38;;;6.64;100.00
21129;BME280;10722;51.910;8.352;2023-02-13T04:08:53;102971.91;;;6.70;100.00
21129;BME280;10722;51.910;8.352;2023-02-13T04:11:46;102980.28;;;6.79;100.00
21129;BME280;10722;51.910;8.352;2023-02-13T04:14:40;102977.13;;;6.83;100.00
21129;BME280;10722;51.910;8.352;2023-02-13T04:17:55;102972.09;;;6.85;100.00
21129;BME280;10722;51.910;8.352;2023-02-13T04:20:43;102979.22;;;6.89;100.00
21129;BME280;10722;51.910;8.352;2023-02-13T04:23:28;102969.94;;;6.91;100.00
21129;BME280;10722;51.910;8.352;2023-02-13T04:26:17;102969.72;;;6.88;100.00
21129;BME280;10722;51.910;8.352;2023-02-13T04:29:04;102966.81;;;6.83;100.00
21129;BME280;10722;51.910;8.352;2023-02-13T04:31:50;102975.97;;;6.91;100.00
21129;BME280;10722;51.910;8.352;2023-02-13T04:34:36;102966.56;;;6.92;100.00
21129;BME280;10722;51.910;8.352;2023-02-13T04:37:21;102974.41;;;6.93;100.00
21129;BME280;10722;51.910;8.352;2023-02-13T04:40:07;102965.88;;;6.94;100.00
21129;BME280;10722;51.910;8.352;2023-02-13T04:42:53;102963.91;;;6.90;100.00
21129;BME280;10722;51.910;8.352;2023-02-13T04:45:38;102957.41;;;6.84;100.00
21129;BME280;10722;51.910;8.352;2023-02-13T04:48:23;102953.53;;;7.02;100.00
21129;BME280;10722;51.910;8.352;2023-02-13T04:51:08;102961.19;;;6.89;100.00
21129;BME280;10722;51.910;8.352;2023-02-13T04:53:53;102955.84;;;6.86;100.00
21129;BME280;10722;51.910;8.352;2023-02-13T04:56:38;102952.06;;;6.81;100.00
21129;BME280;10722;51.910;8.352;2023-02-13T04:59:23;102957.25;;;6.69;100.00
21129;BME280;10722;51.910;8.352;2023-02-13T05:02:09;102959.16;;;6.71;100.00
21129;BME280;10722;51.910;8.352;2023-02-13T05:04:54;102954.91;;;6.72;100.00
21129;BME280;10722;51.910;8.352;2023-02-13T05:07:40;102955.09;;;6.75;100.00
21129;BME280;10722;51.910;8.352;2023-02-13T05:10:26;102956.16;;;6.65;100.00
21129;BME280;10722;51.910;8.352;2023-02-13T05:13:12;102965.09;;;6.70;100.00
21129;BME280;10722;51.910;8.352;2023-02-13T05:15:57;102970.00;;;6.79;100.00
21129;BME280;10722;51.910;8.352;2023-02-13T05:18:43;102965.94;;;6.83;100.00
21129;BME280;10722;51.910;8.352;2023-02-13T05:21:28;102963.91;;;6.90;100.00
21129;BME280;10722;51.910;8.352;2023-02-13T05:24:13;102961.69;;;6.83;100.00
21129;BME280;10722;51.910;8.352;2023-02-13T05:26:58;102961.59;;;6.82;100.00
21129;BME280;10722;51.910;8.352;2023-02-13T05:29:44;102962.34;;;6.81;100.00
21129;BME280;10722;51.910;8.352;2023-02-13T05:32:29;102961.25;;;6.77;100.00
21129;BME280;10722;51.910;8.352;2023-02-13T05:35:14;102970.25;;;6.70;100.00
21129;BME280;10722;51.910;8.352;2023-02-13T05:37:59;102968.34;;;6.68;100.00
21129;BME280;10722;51.910;8.352;2023-02-13T05:40:45;102972.75;;;6.57;100.00
21129;BME280;10722;51.910;8.352;2023-02-13T05:43:30;102966.72;;;6.57;100.00
21129;BME280;10722;51.910;8.352;2023-02-13T05:46:15;102972.97;;;6.60;100.00
21129;BME280;10722;51.910;8.352;2023-02-13T05:49:01;102984.47;;;6.65;100.00
21129;BME280;10722;51.910;8.352;2023-02-13T05:51:49;102980.78;;;6.62;100.00
21129;BME280;10722;51.910;8.352;2023-02-13T05:54:34;102980.25;;;6.54;100.00
21129;BME280;10722;51.910;8.352;2023-02-13T05:57:19;102986.81;;;6.62;100.00
21129;BME280;10722;51.910;8.352;2023-02-13T06:00:05;102981.38;;;6.83;100.00
21129;BME280;10722;51.910;8.352;2023-02-13T06:02:50;102975.41;;;6.70;100.00
21129;BME280;10722;51.910;8.352;2023-02-13T06:05:36;102983.47;;;6.63;100.00
21129;BME280;10722;51.910;8.352;2023-02-13T06:08:22;102981.69;;;6.62;100.00
21129;BME280;10722;51.910;8.352;2023-02-13T06:11:08;102985.06;;;6.49;100.00
21129;BME280;10722;51.910;8.352;2023-02-13T06:13:53;103000.84;;;6.54;100.00
21129;BME280;10722;51.910;8.352;2023-02-13T06:16:40;103000.50;;;6.49;100.00
21129;BME280;10722;51.910;8.352;2023-02-13T06:19:25;102992.53;;;6.58;100.00
21129;BME280;10722;51.910;8.352;2023-02-13T06:22:10;102996.78;;;6.58;100.00
21129;BME280;10722;51.910;8.352;2023-02-13T06:24:58;103000.91;;;6.56;100.00
21129;BME280;10722;51.910;8.352;2023-02-13T06:27:43;103004.84;;;6.62;100.00
21129;BME280;10722;51.910;8.352;2023-02-13T06:30:28;102999.25;;;6.56;100.00
21129;BME280;10722;51.910;8.352;2023-02-13T06:33:15;102999.25;;;6.56;100.00
21129;BME280;10722;51.910;8.352;2023-02-13T06:36:00;103002.59;;;6.55;100.00
21129;BME280;10722;51.910;8.352;2023-02-13T06:38:45;103006.72;;;6.53;100.00
21129;BME280;10722;51.910;8.352;2023-02-13T06:41:30;103013.09;;;6.58;100.00
21129;BME280;10722;51.910;8.352;2023-02-13T06:44:15;103014.13;;;6.60;100.00
21129;BME280;10722;51.910;8.352;2023-02-13T06:47:00;103022.63;;;6.59;100.00
21129;BME280;10722;51.910;8.352;2023-02-13T06:49:45;103016.69;;;6.60;100.00
21129;BME280;10722;51.910;8.352;2023-02-13T06:52:31;103016.00;;;6.63;100.00
21129;BME280;10722;51.910;8.352;2023-02-13T06:55:17;103019.69;;;6.66;100.00
21129;BME280;10722;51.910;8.352;2023-02-13T06:58:03;103019.88;;;6.69;100.00
21129;BME280;10722;51.910;8.352;2023-02-13T07:00:49;103021.81;;;6.60;100.00
21129;BME280;10722;51.910;8.352;2023-02-13T07:03:39;103017.47;;;6.59;100.00
21129;BME280;10722;51.910;8.352;2023-02-13T07:06:24;103027.91;;;6.49;100.00
21129;BME280;10722;51.910;8.352;2023-02-13T07:09:09;103027.56;;;6.44;100.00
21129;BME280;10722;51.910;8.352;2023-02-13T07:11:54;103033.94;;;6.38;100.00
21129;BME280;10722;51.910;8.352;2023-02-13T07:14:40;103041.44;;;6.35;100.00
21129;BME280;10722;51.910;8.352;2023-02-13T07:17:25;103047.25;;;6.44;100.00
21129;BME280;10722;51.910;8.352;2023-02-13T07:20:11;103046.94;;;6.39;100.00
21129;BME280;10722;51.910;8.352;2023-02-13T07:22:58;103050.41;;;6.40;100.00
21129;BME280;10722;51.910;8.352;2023-02-13T07:25:43;103042.69;;;6.40;100.00
21129;BME280;10722;51.910;8.352;2023-02-13T07:28:29;103048.13;;;6.44;100.00
21129;BME280;10722;51.910;8.352;2023-02-13T07:31:14;103043.00;;;6.33;100.00
21129;BME280;10722;51.910;8.352;2023-02-13T07:34:00;103046.38;;;6.32;100.00
21129;BME280;10722;51.910;8.352;2023-02-13T07:36:45;103048.38;;;6.36;100.00
21129;BME280;10722;51.910;8.352;2023-02-13T07:39:31;103052.97;;;6.40;100.00
21129;BME280;10722;51.910;8.352;2023-02-13T07:42:16;103046.47;;;6.45;100.00
21129;BME280;10722;51.910;8.352;2023-02-13T07:45:01;103049.59;;;6.41;100.00
21129;BME280;10722;51.910;8.352;2023-02-13T07:47:46;103050.94;;;6.36;100.00
21129;BME280;10722;51.910;8.352;2023-02-13T07:50:32;103053.66;;;6.25;100.00
21129;BME280;10722;51.910;8.352;2023-02-13T07:53:17;103049.28;;;6.24;100.00
21129;BME280;10722;51.910;8.352;2023-02-13T07:56:06;103051.06;;;6.25;100.00
21129;BME280;10722;51.910;8.352;2023-02-13T07:58:51;103055.56;;;6.28;100.00
21129;BME280;10722;51.910;8.352;2023-02-13T08:01:37;103056.88;;;6.23;100.00
21129;BME280;10722;51.910;8.352;2023-02-13T08:04:22;103053.63;;;6.37;100.00
21129;BME280;10722;51.910;8.352;2023-02-13T08:07:10;103057.31;;;6.29;100.00
21129;BME280;10722;51.910;8.352;2023-02-13T08:09:55;103053.97;;;6.30;100.00
21129;BME280;10722;51.910;8.352;2023-02-13T08:12:41;103043.59;;;6.28;100.00
21129;BME280;10722;51.910;8.352;2023-02-13T08:15:26;103053.66;;;6.25;100.00
21129;BME280;10722;51.910;8.352;2023-02-13T08:18:11;103051.97;;;6.26;100.00
21129;BME280;10722;51.910;8.352;2023-02-13T08:20:57;103054.63;;;6.27;100.00
21129;BME280;10722;51.910;8.352;2023-02-13T08:23:42;103054.63;;;6.27;100.00
21129;BME280;10722;51.910;8.352;2023-02-13T08:26:30;103054.09;;;6.32;100.00
21129;BME280;10722;51.910;8.352;2023-02-13T08:29:15;103053.28;;;6.33;100.00
21129;BME280;10722;51.910;8.352;2023-02-13T08:32:00;103051.16;;;6.39;100.00
21129;BME280;10722;51.910;8.352;2023-02-13T08:34:45;103052.97;;;6.40;100.00
21129;BME280;10722;51.910;8.352;2023-02-13T08:37:31;103039.09;;;6.38;100.00
21129;BME280;10722;51.910;8.352;2023-02-13T08:40:16;103041.22;;;6.43;100.00
21129;BME280;10722;51.910;8.352;2023-02-13T08:43:03;103038.72;;;6.57;100.00
21129;BME280;10722;51.910;8.352;2023-02-13T08:45:48;103035.56;;;6.61;100.00
21129;BME280;10722;51.910;8.352;2023-02-13T08:48:34;103033.59;;;6.57;100.00
21129;BME280;10722;51.910;8.352;2023-02-13T08:51:19;103033.84;;;6.48;100.00
21129;BME280;10722;51.910;8.352;2023-02-13T08:54:04;103028.22;;;6.42;100.00
21129;BME280;10722;51.910;8.352;2023-02-13T08:56:50;103030.69;;;6.52;100.00
21129;BME280;10722;51.910;8.352;2023-02-13T08:59:35;103032.91;;;6.47;100.00
21129;BME280;10722;51.910;8.352;2023-02-13T09:02:20;103035.59;;;6.49;100.00
21129;BME280;10722;51.910;8.352;2023-02-13T09:05:06;103041.41;;;6.58;100.00
21129;BME280;10722;51.910;8.352;2023-02-13T09:07:52;103039.84;;;6.60;100.00
21129;BME280;10722;51.910;8.352;2023-02-13T09:10:37;103049.66;;;6.66;100.00
21129;BME280;10722;51.910;8.352;2023-02-13T09:13:22;103055.44;;;6.75;100.00
21129;BME280;10722;51.910;8.352;2023-02-13T09:16:07;103051.28;;;6.89;100.00
21129;BME280;10722;51.910;8.352;2023-02-13T09:18:52;103047.06;;;7.03;100.00
21129;BME280;10722;51.910;8.352;2023-02-13T09:21:37;103042.53;;;6.99;100.00
21129;BME280;10722;51.910;8.352;2023-02-13T09:24:23;103038.59;;;6.92;100.00
21129;BME280;10722;51.910;8.352;2023-02-13T09:27:08;103033.84;;;6.85;100.00
21129;BME280;10722;51.910;8.352;2023-02-13T09:29:54;103047.06;;;7.03;100.00
21129;BME280;10722;51.910;8.352;2023-02-13T09:32:40;103036.72;;;7.14;100.00
21129;BME280;10722;51.910;8.352;2023-02-13T09:35:26;103020.19;;;6.86;100.00
21129;BME280;10722;51.910;8.352;2023-02-13T09:38:11;103035.66;;;6.74;100.00
21129;BME280;10722;51.910;8.352;2023-02-13T09:41:00;103024.78;;;6.90;100.00
21129;BME280;10722;51.910;8.352;2023-02-13T09:46:36;103029.66;;;6.87;100.00
21129;BME280;10722;51.910;8.352;2023-02-13T09:49:25;103021.66;;;6.82;100.00
21129;BME280;10722;51.910;8.352;2023-02-13T09:52:12;103018.91;;;6.92;100.00
21129;BME280;10722;51.910;8.352;2023-02-13T09:54:57;103017.13;;;6.91;100.00
21129;BME280;10722;51.910;8.352;2023-02-13T10:00:53;103022.69;;;6.97;100.00
21129;BME280;10722;51.910;8.352;2023-02-13T10:03:44;103023.84;;;6.89;100.00
21129;BME280;10722;51.910;8.352;2023-02-13T10:06:35;103019.63;;;6.90;100.00
21129;BME280;10722;51.910;8.352;2023-02-13T10:09:29;103022.22;;;7.03;100.00
21129;BME280;10722;51.910;8.352;2023-02-13T10:12:42;103014.31;;;7.00;100.00
21129;BME280;10722;51.910;8.352;2023-02-13T10:15:40;103022.88;;;7.12;100.00
21129;BME280;10722;51.910;8.352;2023-02-13T10:18:39;103022.16;;;7.15;100.00
21129;BME280;10722;51.910;8.352;2023-02-13T10:21:34;103019.44;;;7.25;100.00
21129;BME280;10722;51.910;8.352;2023-02-13T10:24:42;103013.81;;;7.31;100.00
21129;BME280;10722;51.910;8.352;2023-02-13T10:27:34;103004.31;;;7.43;100.00
21129;BME280;10722;51.910;8.352;2023-02-13T10:30:28;102997.72;;;7.60;100.00
21129;BME280;10722;51.910;8.352;2023-02-13T10:36:21;102975.94;;;7.95;100.00
21129;BME280;10722;51.910;8.352;2023-02-13T10:39:22;102953.84;;;7.72;100.00
21129;BME280;10722;51.910;8.352;2023-02-13T10:45:05;102951.63;;;7.91;100.00
21129;BME280;10722;51.910;8.352;2023-02-13T10:48:04;102955.28;;;8.08;100.00
21129;BME280;10722;51.910;8.352;2023-02-13T10:51:18;102937.84;;;8.17;99.39
21129;BME280;10722;51.910;8.352;2023-02-13T11:03:19;102898.47;;;8.20;95.61
21129;BME280;10722;51.910;8.352;2023-02-13T11:06:07;102896.91;;;8.08;95.39
21129;BME280;10722;51.910;8.352;2023-02-13T11:08:53;102894.91;;;8.04;95.49
21129;BME280;10722;51.910;8.352;2023-02-13T11:11:40;102910.50;;;8.34;95.66
21129;BME280;10722;51.910;8.352;2023-02-13T11:14:26;102896.81;;;8.35;95.18
21129;BME280;10722;51.910;8.352;2023-02-13T11:17:15;102881.50;;;8.51;94.06
21129;BME280;10722;51.910;8.352;2023-02-13T11:20:06;102878.41;;;8.57;93.36
21129;BME280;10722;51.910;8.352;2023-02-13T11:22:52;102856.69;;;8.53;92.89
21129;BME280;10722;51.910;8.352;2023-02-13T11:25:37;102863.09;;;8.60;92.26
21129;BME280;10722;51.910;8.352;2023-02-13T11:28:23;102863.81;;;8.58;92.38
21129;BME280;10722;51.910;8.352;2023-02-13T11:34:33;102853.34;;;8.84;91.40
21129;BME280;10722;51.910;8.352;2023-02-13T11:40:30;102835.47;;;8.87;90.49
21129;BME280;10722;51.910;8.352;2023-02-13T11:43:28;102835.31;;;9.30;90.41
21129;BME280;10722;51.910;8.352;2023-02-13T11:46:22;102824.69;;;9.72;89.01
21129;BME280;10722;51.910;8.352;2023-02-13T11:49:25;102796.34;;;9.73;87.38
21129;BME280;10722;51.910;8.352;2023-02-13T11:52:23;102790.03;;;9.52;87.60
21129;BME280;10722;51.910;8.352;2023-02-13T11:55:33;102783.53;;;9.91;87.05
21129;BME280;10722;51.910;8.352;2023-02-13T11:58:24;102746.69;;;10.46;85.16
21129;BME280;10722;51.910;8.352;2023-02-13T12:04:14;102697.88;;;11.44;82.11
21129;BME280;10722;51.910;8.352;2023-02-13T12:07:03;102648.75;;;11.09;79.92
21129;BME280;10722;51.910;8.352;2023-02-13T12:09:56;102644.38;;;10.70;79.51
21129;BME280;10722;51.910;8.352;2023-02-13T12:16:24;102671.53;;;10.98;79.74
21129;BME280;10722;51.910;8.352;2023-02-13T12:19:16;102682.84;;;10.45;80.47
21129;BME280;10722;51.910;8.352;2023-02-13T12:22:29;102687.28;;;10.65;80.79
21129;BME280;10722;51.910;8.352;2023-02-13T12:25:39;102688.25;;;10.33;81.01
21129;BME280;10722;51.910;8.352;2023-02-13T12:31:45;102656.88;;;11.16;79.19
21129;BME280;10722;51.910;8.352;2023-02-13T12:37:58;102629.50;;;11.81;77.27
21129;BME280;10722;51.910;8.352;2023-02-13T12:44:25;102542.09;;;11.79;74.33
21129;BME280;10722;51.910;8.352;2023-02-13T12:47:27;102615.41;;;11.94;76.09
21129;BME280;10722;51.910;8.352;2023-02-13T12:50:48;102601.47;;;11.92;75.52
21129;BME280;10722;51.910;8.352;2023-02-13T13:00:23;102526.50;;;12.42;72.35
21129;BME280;10722;51.910;8.352;2023-02-13T13:03:33;102535.31;;;12.47;72.19
21129;BME280;10722;51.910;8.352;2023-02-13T13:06:33;102514.28;;;11.96;72.36
21129;BME280;10722;51.910;8.352;2023-02-13T13:15:46;102549.59;;;12.81;72.08
21129;BME280;10722;51.910;8.352;2023-02-13T13:22:12;102566.22;;;12.62;72.89
21129;BME280;10722;51.910;8.352;2023-02-13T13:25:20;102531.59;;;12.18;72.50
21129;BME280;10722;51.910;8.352;2023-02-13T13:28:19;102573.88;;;12.59;73.04
21129;BME280;10722;51.910;8.352;2023-02-13T13:31:06;102521.41;;;12.67;71.49
21129;BME280;10722;51.910;8.352;2023-02-13T13:33:54;102525.41;;;12.82;71.24
21129;BME280;10722;51.910;8.352;2023-02-13T13:36:47;102542.16;;;12.90;71.68
21129;BME280;10722;51.910;8.352;2023-02-13T13:42:38;102555.22;;;13.15;71.17
21129;BME280;10722;51.910;8.352;2023-02-13T13:45:46;102567.09;;;13.09;71.48
21129;BME280;10722;51.910;8.352;2023-02-13T13:51:38;102545.91;;;13.22;70.73
21129;BME280;10722;51.910;8.352;2023-02-13T13:54:24;102540.38;;;12.89;70.70
21129;BME280;10722;51.910;8.352;2023-02-13T13:57:24;102556.06;;;13.38;70.43
21129;BME280;10722;51.910;8.352;2023-02-13T14:06:11;102540.63;;;13.94;68.77
21129;BME280;10722;51.910;8.352;2023-02-13T14:09:09;102512.47;;;12.83;69.09
21129;BME280;10722;51.910;8.352;2023-02-13T14:12:45;102561.97;;;13.34;69.50
21129;BME280;10722;51.910;8.352;2023-02-13T14:18:21;102564.91;;;12.73;70.49
21129;BME280;10722;51.910;8.352;2023-02-13T14:21:08;102565.56;;;12.24;71.13
21129;BME280;10722;51.910;8.352;2023-02-13T14:23:53;102617.16;;;12.37;72.63
21129;BME280;10722;51.910;8.352;2023-02-13T14:26:39;102578.13;;;13.03;70.74
21129;BME280;10722;51.910;8.352;2023-02-13T14:29:28;102567.38;;;12.92;70.60
21129;BME280;10722;51.910;8.352;2023-02-13T14:35:18;102546.75;;;12.50;70.01
21129;BME280;10722;51.910;8.352;2023-02-13T14:38:20;102572.31;;;12.64;70.52
21129;BME280;10722;51.910;8.352;2023-02-13T14:44:44;102559.66;;;13.93;68.74
21129;BME280;10722;51.910;8.352;2023-02-13T14:47:34;102505.44;;;13.29;67.38
21129;BME280;10722;51.910;8.352;2023-02-13T14:53:14;102558.81;;;13.43;69.56
21129;BME280;10722;51.910;8.352;2023-02-13T14:56:05;102544.13;;;13.69;68.46
21129;BME280;10722;51.910;8.352;2023-02-13T14:59:34;102527.50;;;13.91;67.50
21129;BME280;10722;51.910;8.352;2023-02-13T15:02:07;102502.88;;;13.80;66.65
21129;BME280;10722;51.910;8.352;2023-02-13T15:08:12;102543.06;;;13.89;67.24
21129;BME280;10722;51.910;8.352;2023-02-13T15:10:59;102550.91;;;13.65;68.02
21129;BME280;10722;51.910;8.352;2023-02-13T15:13:45;102534.88;;;13.52;67.46
21129;BME280;10722;51.910;8.352;2023-02-13T15:16:30;102555.78;;;13.31;68.53
21129;BME280;10722;51.910;8.352;2023-02-13T15:19:17;102566.03;;;12.57;70.14
21129;BME280;10722;51.910;8.352;2023-02-13T15:22:04;102594.66;;;12.81;70.53
21129;BME280;10722;51.910;8.352;2023-02-13T15:24:50;102583.06;;;13.19;69.79
21129;BME280;10722;51.910;8.352;2023-02-13T15:27:45;102557.13;;;13.69;68.77
21129;BME280;10722;51.910;8.352;2023-02-13T15:30:33;102557.22;;;14.25;67.76
21129;BME280;10722;51.910;8.352;2023-02-13T15:33:21;102520.31;;;13.09;68.08
21129;BME280;10722;51.910;8.352;2023-02-13T15:36:20;102545.03;;;13.45;68.51
21129;BME280;10722;51.910;8.352;2023-02-13T15:39:15;102528.28;;;13.37;67.73
21129;BME280;10722;51.910;8.352;2023-02-13T15:42:09;102539.31;;;12.84;68.98
21129;BME280;10722;51.910;8.352;2023-02-13T15:45:05;102571.44;;;12.41;70.93
21129;BME280;10722;51.910;8.352;2023-02-13T15:47:57;102581.88;;;12.20;71.49
21129;BME280;10722;51.910;8.352;2023-02-13T15:50:42;102612.25;;;11.82;73.21
21129;BME280;10722;51.910;8.352;2023-02-13T15:53:28;102627.00;;;11.83;74.00
21129;BME280;10722;51.910;8.352;2023-02-13T15:56:14;102641.50;;;11.79;74.40
21129;BME280;10722;51.910;8.352;2023-02-13T15:59:00;102647.38;;;12.14;74.55
21129;BME280;10722;51.910;8.352;2023-02-13T16:01:47;102630.13;;;11.76;74.56
21129;BME280;10722;51.910;8.352;2023-02-13T16:04:36;102648.16;;;11.92;74.98
21129;BME280;10722;51.910;8.352;2023-02-13T16:07:21;102639.28;;;11.67;75.23
21129;BME280;10722;51.910;8.352;2023-02-13T16:13:15;102642.06;;;11.14;75.62
21129;BME280;10722;51.910;8.352;2023-02-13T16:16:07;102670.16;;;11.05;77.30
21129;BME280;10722;51.910;8.352;2023-02-13T16:18:53;102668.94;;;10.79;77.93
21129;BME280;10722;51.910;8.352;2023-02-13T16:21:38;102683.47;;;10.59;79.29
21129;BME280;10722;51.910;8.352;2023-02-13T16:24:25;102685.78;;;10.52;80.26
21129;BME280;10722;51.910;8.352;2023-02-13T16:27:12;102675.91;;;10.27;80.45
21129;BME280;10722;51.910;8.352;2023-02-13T16:30:06;102681.41;;;10.17;81.29
21129;BME280;10722;51.910;8.352;2023-02-13T16:38:55;102693.19;;;9.61;83.53
21129;BME280;10722;51.910;8.352;2023-02-13T16:41:40;102708.44;;;9.57;84.02
21129;BME280;10722;51.910;8.352;2023-02-13T16:44:30;102711.19;;;9.43;84.86
21129;BME280;10722;51.910;8.352;2023-02-13T16:47:21;102720.06;;;9.32;85.76
21129;BME280;10722;51.910;8.352;2023-02-13T16:50:13;102737.16;;;9.30;86.44
21129;BME280;10722;51.910;8.352;2023-02-13T16:53:01;102743.47;;;9.04;86.86
21129;BME280;10722;51.910;8.352;2023-02-13T16:55:56;102749.47;;;9.19;87.46
21129;BME280;10722;51.910;8.352;2023-02-13T16:58:41;102758.81;;;9.17;87.72
21129;BME280;10722;51.910;8.352;2023-02-13T17:01:27;102749.63;;;8.91;87.96
21129;BME280;10722;51.910;8.352;2023-02-13T17:04:20;102754.78;;;8.91;88.42